Weather at Valencia Airport

Public forecast

Using degrees Celsius for public forecast. Weather courtesy of forecast.io.

Current aviation weather report (METAR) for Valencia Airport

Retrieved 2021/01/19 14:30 UTC (0 seconds ago):

LEVC 191430Z 13006KT CAVOK 15/06 Q1022 NOSIG

Aviation forecast (TAF) for Valencia Airport

Retrieved 2021/01/19 12:27 UTC (2 hours ago):

TAF LEVC 191100Z 1912/2012 VRB04KT 9999 FEW025 TX18/1913Z TN05/2006Z TEMPO 1912/1917 10007KT